Thumbnail
Southwest 847 (Track inbound flight)
SWA847 · "Southwest" (all flights) southwest.com
Int'l d'Orlando ()
Gate 103
Int'l de Denver ()
Gate C46
Scheduled: 09h05 EDT
7-day average: 09h03 EDT
Scheduled: 10h15 MDT
7-day average: 10h04 MDT
6 min
3 hr 12 min
Duration: 3 hours 18 minutes
mardi, 5 mai 2015
Status En Route / On Time (29 km down; 2.460 km to go)
Aircraft Boeing 737-800 (twin-jet) (B738 – photos)
Speed 351 kts (planned: 456 kts) (graph)
Altitude climbing 10.900 feet (planned: 34.000 feet) (graph)
Distance Direct: 2.489 km    Planned: 2.615 km
FareAverage: $172.58 (airline insight)
Route CAMDT CTY SZW KT15M LIT TUL KK42C KIISS JAGGR3 (Decode)
ACTIVITY LOG
Want a full history search for SWA847 dating back to 1998? Buy now. Get it within one hour.
Date Aircraft Origin Destination Departure Arrival Duration
06-05-2015 B738Int'l McCarran ()Int'l de Philadelphie () 16h55 PDT 00h20 EDT (+1) Scheduled
06-05-2015 B738Int'l de Los Angeles ()Int'l McCarran () 14h45 PDT 15h30 PDT Scheduled
06-05-2015 B738Int'l de Denver ()Int'l de Los Angeles () 12h15 MDT 13h30 PDT Scheduled
06-05-2015 B738Int'l d'Orlando ()Int'l de Denver () 09h15 EDT 10h27 MDT Scheduled
06-05-2015 B738Int'l de Pittsburgh ()Int'l d'Orlando () 05h43 EDT 07h38 EDT Scheduled
05-05-2015 B738Int'l McCarran ()Int'l de Philadelphie () 16h57 PDT 00h16 EDT (+1) Scheduled
05-05-2015 B738Int'l de Los Angeles ()Int'l McCarran () 14h45 PDT 15h30 PDT Scheduled
05-05-2015 B738Int'l de Denver ()Int'l de Los Angeles () 12h15 MDT 13h30 PDT Scheduled
05-05-2015 B738/LInt'l d'Orlando ()Int'l de Denver () 09h13 EDT 10h29 MDT En Route
05-05-2015 B738/LInt'l de Pittsburgh ()Int'l d'Orlando () 05h41 EDT 07h35 EDT 1:54
04-05-2015 B738/LInt'l McCarran ()Int'l de Philadelphie () 17h34 PDT 01h03 EDT (+1) 4:28
04-05-2015 B738/LInt'l de Los Angeles ()Int'l McCarran () 15h36 PDT 16h22 PDT 0:46
04-05-2015 B738Int'l de Denver ()Int'l de Los Angeles () 12h20 MDT 13h16 PDT 1:56
04-05-2015 B738Int'l d'Orlando ()Int'l de Denver () 09h14 EDT 10h31 MDT 3:16
04-05-2015 B738Int'l de Pittsburgh ()Int'l d'Orlando () 05h44 EDT 07h34 EDT 1:50
03-05-2015 B738/LInt'l McCarran ()Int'l de Philadelphie () 17h47 PDT 01h05 EDT (+1) 4:17
03-05-2015 B738Int'l de Los Angeles ()Int'l McCarran () 14h39 PDT 15h25 PDT 0:45
03-05-2015 B738Int'l de Denver ()Int'l de Los Angeles () 12h25 MDT 13h26 PDT 2:00
03-05-2015 B738Int'l d'Orlando ()Int'l de Denver () 09h10 EDT 10h33 MDT 3:23
03-05-2015 B738Int'l de Pittsburgh ()Int'l d'Orlando () 05h43 EDT 07h29 EDT 1:46
01-05-2015 B738/LInt'l McCarran ()Int'l de Philadelphie () 17h24 PDT 00h35 EDT (+1) 4:11
01-05-2015 B738/LInt'l de Los Angeles ()Int'l McCarran () 15h28 PDT 16h15 PDT 0:47
01-05-2015 B738Int'l de Denver ()Int'l de Los Angeles () 12h23 MDT 13h22 PDT 1:58
01-05-2015 B738Int'l d'Orlando ()Int'l de Denver () 09h19 EDT 10h42 MDT 3:22
01-05-2015 B738Int'l de Pittsburgh ()Int'l d'Orlando () 05h42 EDT 07h31 EDT 1:48
30-04-2015 B738/LInt'l McCarran ()Int'l de Philadelphie () 17h07 PDT 00h17 EDT (+1) 4:10
30-04-2015 B738Int'l de Los Angeles ()Int'l McCarran () 14h57 PDT 15h40 PDT 0:42
30-04-2015 B738Int'l de Denver ()Int'l de Los Angeles () 12h12 MDT 13h14 PDT 2:01
30-04-2015 B738Int'l d'Orlando ()Int'l de Denver () 09h21 EDT 10h49 MDT 3:28
30-04-2015 B738Int'l de Pittsburgh ()Int'l d'Orlando () 05h38 EDT 07h32 EDT 1:54
29-04-2015 B738Int'l McCarran ()Int'l de Philadelphie () 16h57 PDT 00h20 EDT (+1) 4:23
29-04-2015 B738Int'l de Los Angeles ()Int'l McCarran () 14h42 PDT 15h26 PDT 0:43
29-04-2015 B738Int'l de Denver ()Int'l de Los Angeles () 12h16 MDT 13h05 PDT 1:49
29-04-2015 B738Int'l d'Orlando ()Int'l de Denver () 09h14 EDT 10h45 MDT 3:31
29-04-2015 B738Int'l de Pittsburgh ()Int'l d'Orlando () 05h41 EDT 07h35 EDT 1:54
28-04-2015 B738Int'l McCarran ()Int'l de Philadelphie () 16h52 PDT 00h19 EDT (+1) 4:27
28-04-2015 B738Int'l de Los Angeles ()Int'l McCarran () 14h43 PDT 15h28 PDT 0:44
28-04-2015 B738Int'l de Denver ()Int'l de Los Angeles () 12h16 MDT 12h58 PDT 1:42
28-04-2015 B738Int'l d'Orlando ()Int'l de Denver () 09h22 EDT 10h49 MDT 3:26
28-04-2015 B738/LInt'l de Pittsburgh ()Int'l d'Orlando () 05h41 EDT 07h36 EDT 1:55
27-04-2015 B738Int'l McCarran ()Int'l de Philadelphie () 16h53 PDT 00h16 EDT (+1) 4:22
27-04-2015 B738Int'l de Los Angeles ()Int'l McCarran () 14h46 PDT 15h25 PDT 0:38
27-04-2015 B738Int'l de Denver ()Int'l de Los Angeles () 12h16 MDT 12h58 PDT 1:41
27-04-2015 B738Int'l d'Orlando ()Int'l de Denver () 09h12 EDT 10h47 MDT 3:34
27-04-2015 B738Int'l de Pittsburgh ()Int'l d'Orlando () 05h39 EDT 07h29 EDT 1:50
26-04-2015 B738/LInt'l McCarran ()Int'l de Philadelphie () 16h55 PDT 00h07 EDT (+1) 4:12
26-04-2015 B738Int'l de Los Angeles ()Int'l McCarran () 14h47 PDT 15h28 PDT 0:41
26-04-2015 B738Int'l de Denver ()Int'l de Los Angeles () 12h17 MDT 13h09 PDT 1:51
26-04-2015 B738Int'l de Denver ()Int'l de Los Angeles () 12h17 MDT 13h07 PDT 1:50
26-04-2015 B738/LInt'l d'Orlando ()Int'l de Denver () 09h14 EDT 11h01 MDT 3:47
26-04-2015 B738/LInt'l de Pittsburgh ()Int'l d'Orlando () 05h40 EDT 07h28 EDT 1:48
24-04-2015 B738Int'l McCarran ()Int'l de Philadelphie () 17h07 PDT 00h04 EDT (+1) 3:57
24-04-2015 B738/LInt'l de Los Angeles ()Int'l McCarran () 14h55 PDT 15h43 PDT 0:48
24-04-2015 B738/LInt'l de Denver ()Int'l de Los Angeles () 12h42 MDT 13h41 PDT 1:59
24-04-2015 B738Int'l d'Orlando ()Int'l de Denver () 09h15 EDT 10h58 MDT 3:43
24-04-2015 B738Int'l de Pittsburgh ()Int'l d'Orlando () 05h50 EDT 07h32 EDT 1:41
23-04-2015 B738/LInt'l McCarran ()Int'l de Philadelphie () 17h40 PDT 00h29 EDT (+1) 3:49
23-04-2015 B738/LInt'l de Los Angeles ()Int'l McCarran () 15h25 PDT 16h12 PDT 0:47
23-04-2015 B738Int'l de Denver ()Int'l de Los Angeles () 12h31 MDT 13h27 PDT 1:56
23-04-2015 B738/LInt'l d'Orlando ()Int'l de Denver () 09h22 EDT 11h11 MDT 3:49
22-04-2015 B738Int'l de Denver ()Int'l de Los Angeles () 12h18 MDT 13h42 PDT 2:24
21-04-2015 B738Int'l de Los Angeles ()Int'l McCarran () 14h45 PDT 15h35 PDT (?) 0:50
Registered users (registering is free and easy!) view 4 months history. Join
 

Login

Don't have an account? Register now (free) for customized features, flight alerts, and more!